createdAt,value
2022-10-10T00:01:04.623Z,0.00
2022-10-10T00:06:36.072Z,0.00
2022-10-10T00:12:07.827Z,1.00
2022-10-10T00:17:39.701Z,0.00
2022-10-10T00:23:11.543Z,1.00
2022-10-10T00:28:43.339Z,1.00
2022-10-10T00:34:15.064Z,1.00
2022-10-10T00:39:46.747Z,0.00
2022-10-10T00:45:18.418Z,1.00
2022-10-10T00:50:50.132Z,1.00
2022-10-10T00:56:21.874Z,1.00
2022-10-10T01:01:53.611Z,0.00
2022-10-10T01:07:25.402Z,0.00
2022-10-10T01:12:57.042Z,0.00
2022-10-10T01:18:28.960Z,1.00
2022-10-10T01:24:00.670Z,0.00
2022-10-10T01:29:33.210Z,0.00
2022-10-10T01:35:05.198Z,1.00
2022-10-10T01:40:36.597Z,1.00
2022-10-10T01:46:08.370Z,0.00
2022-10-10T01:51:40.110Z,1.00
2022-10-10T01:57:11.785Z,0.00
2022-10-10T02:02:43.626Z,0.00
2022-10-10T02:08:15.483Z,0.00
2022-10-10T02:13:48.236Z,0.00
2022-10-10T02:24:51.783Z,0.00
2022-10-10T02:30:29.872Z,1.00
2022-10-10T02:36:04.013Z,0.00
2022-10-10T02:47:10.029Z,0.00
2022-10-10T02:52:41.726Z,1.00
2022-10-10T02:58:13.612Z,0.00
2022-10-10T03:03:45.273Z,0.00
2022-10-10T03:09:17.103Z,0.00
2022-10-10T03:14:48.592Z,0.00
2022-10-10T03:20:20.373Z,0.00
2022-10-10T03:25:51.761Z,1.00
2022-10-10T03:31:23.756Z,1.00
2022-10-10T03:36:57.808Z,0.00
2022-10-10T03:42:29.582Z,1.00
2022-10-10T03:53:32.938Z,0.00
2022-10-10T04:04:36.639Z,0.00
2022-10-10T04:10:08.395Z,1.00
2022-10-10T04:15:40.175Z,0.00
2022-10-10T04:21:12.110Z,1.00
2022-10-10T04:26:43.780Z,0.00
2022-10-10T04:32:15.616Z,0.00
2022-10-10T04:37:47.379Z,0.00
2022-10-10T04:43:21.794Z,1.00
2022-10-10T04:48:53.303Z,1.00
2022-10-10T04:54:25.098Z,1.00
2022-10-10T04:59:57.084Z,2.00
2022-10-10T05:05:28.725Z,6.00
2022-10-10T05:11:00.612Z,20.00
2022-10-10T05:16:34.239Z,55.00
2022-10-10T05:22:07.140Z,112.00
2022-10-10T05:27:38.782Z,187.00
2022-10-10T05:33:12.884Z,313.00
2022-10-10T05:38:44.620Z,726.00
2022-10-10T05:44:16.351Z,1037.00
2022-10-10T05:49:49.154Z,1412.00
2022-10-10T05:55:20.959Z,2189.00
2022-10-10T06:00:52.834Z,3123.00
2022-10-10T06:06:24.630Z,6335.00
2022-10-10T06:11:56.241Z,6267.00
2022-10-10T06:17:28.168Z,9913.00
2022-10-10T06:22:59.869Z,11504.00
2022-10-10T06:28:31.721Z,17413.00
2022-10-10T06:34:03.784Z,37889.00
2022-10-10T06:39:35.353Z,37889.00
2022-10-10T06:45:07.337Z,28652.00
2022-10-10T06:50:39.102Z,19752.00
2022-10-10T06:56:10.759Z,16292.00
2022-10-10T07:01:42.461Z,13965.00
2022-10-10T07:07:14.296Z,18598.00
2022-10-10T07:12:48.281Z,23961.00
2022-10-10T07:18:19.973Z,22609.00
2022-10-10T07:23:51.827Z,21856.00
2022-10-10T07:34:55.535Z,25627.00
2022-10-10T07:40:27.174Z,25982.00
2022-10-10T07:51:30.173Z,32858.00
2022-10-10T07:57:02.161Z,36178.00
2022-10-10T08:02:33.963Z,37889.00
2022-10-10T08:08:05.766Z,37889.00
2022-10-10T08:13:37.258Z,37889.00
2022-10-10T08:19:09.288Z,37889.00
2022-10-10T08:27:00.986Z,37889.00
2022-10-10T08:32:32.783Z,37889.00
2022-10-10T08:38:04.635Z,37889.00
2022-10-10T08:43:36.274Z,37889.00
2022-10-10T08:56:57.975Z,37889.00
2022-10-10T09:02:43.598Z,37889.00
2022-10-10T09:08:01.014Z,37889.00
2022-10-10T09:13:32.787Z,37889.00
2022-10-10T09:24:34.173Z,37889.00
2022-10-10T09:30:05.871Z,36151.00
2022-10-10T09:35:37.688Z,31957.00
2022-10-10T09:41:09.558Z,37888.00
2022-10-10T09:46:41.274Z,37889.00
2022-10-10T09:52:13.124Z,36863.00
2022-10-10T09:57:44.951Z,33439.00
2022-10-10T10:03:16.692Z,34398.00
2022-10-10T10:14:17.507Z,33189.00
2022-10-10T10:19:49.250Z,29432.00
2022-10-10T10:25:20.967Z,22772.00
2022-10-10T10:30:52.877Z,21799.00
2022-10-10T10:36:24.660Z,25658.00
2022-10-10T10:41:56.461Z,27981.00
2022-10-10T10:47:27.992Z,29813.00
2022-10-10T10:52:59.517Z,29036.00
2022-10-10T11:05:17.847Z,28729.00
2022-10-10T11:09:49.651Z,29709.00
2022-10-10T11:15:06.675Z,29043.00
2022-10-10T11:20:38.296Z,28597.00
2022-10-10T11:31:39.589Z,27226.00
2022-10-10T11:37:11.558Z,25927.00
2022-10-10T11:42:43.145Z,24939.00
2022-10-10T11:53:45.799Z,23710.00
2022-10-10T11:59:17.408Z,23315.00
2022-10-10T12:04:49.103Z,22698.00
2022-10-10T12:15:50.262Z,22518.00
2022-10-10T12:21:21.437Z,23132.00
2022-10-10T12:26:52.779Z,22451.00
2022-10-10T12:32:24.118Z,20605.00
2022-10-10T12:43:25.144Z,18945.00
2022-10-10T12:48:56.805Z,18205.00
2022-10-10T12:54:28.544Z,17117.00
2022-10-10T13:00:02.200Z,16536.00
2022-10-10T13:05:31.668Z,15898.00
2022-10-10T13:11:03.935Z,15211.00
2022-10-10T13:22:05.046Z,15042.00
2022-10-10T13:27:37.200Z,14565.00
2022-10-10T13:33:08.610Z,13652.00
2022-10-10T13:44:10.095Z,10769.00
2022-10-10T13:49:41.955Z,10409.00
2022-10-10T13:55:13.476Z,11520.00
2022-10-10T14:06:14.962Z,11251.00
2022-10-10T14:11:46.479Z,10396.00
2022-10-10T14:17:18.133Z,10420.00
2022-10-10T14:22:51.486Z,10371.00
2022-10-10T14:28:23.245Z,10530.00
2022-10-10T14:33:55.052Z,10705.00
2022-10-10T14:39:26.791Z,9720.00
2022-10-10T14:44:58.388Z,7853.00
2022-10-10T14:50:31.115Z,6272.00
2022-10-10T14:56:02.952Z,5685.00
2022-10-10T15:01:34.732Z,5062.00
2022-10-10T15:07:13.343Z,4383.00
2022-10-10T15:12:38.379Z,3975.00
2022-10-10T15:18:39.248Z,3723.00
2022-10-10T15:23:41.704Z,3685.00
2022-10-10T15:29:13.364Z,3331.00
2022-10-10T15:34:45.331Z,2788.00
2022-10-10T15:40:16.889Z,2207.00
2022-10-10T15:45:55.902Z,2145.00
2022-10-10T15:51:19.937Z,1919.00
2022-10-10T15:56:51.697Z,1577.00
2022-10-10T16:02:23.670Z,1063.00
2022-10-10T16:07:55.504Z,870.00
2022-10-10T16:13:27.443Z,666.00
2022-10-10T16:18:58.978Z,545.00
2022-10-10T16:24:30.821Z,273.00
2022-10-10T16:30:02.660Z,251.00
2022-10-10T16:35:34.436Z,140.00
2022-10-10T16:41:06.224Z,58.00
2022-10-10T16:46:37.986Z,28.00
2022-10-10T16:52:09.566Z,19.00
2022-10-10T16:57:41.883Z,9.00
2022-10-10T17:03:13.773Z,5.00
2022-10-10T17:14:15.134Z,4.00
2022-10-10T17:19:46.881Z,3.00
2022-10-10T17:25:18.406Z,3.00
2022-10-10T17:30:50.095Z,3.00
2022-10-10T17:36:21.910Z,4.00
2022-10-10T17:47:23.163Z,0.00
2022-10-10T17:52:54.889Z,1.00
2022-10-10T17:58:27.133Z,1.00
2022-10-10T18:03:58.924Z,1.00
2022-10-10T18:09:30.849Z,2.00
2022-10-10T18:15:02.646Z,0.00
2022-10-10T18:20:34.182Z,0.00
2022-10-10T18:26:06.016Z,1.00
2022-10-10T18:31:37.777Z,1.00
2022-10-10T18:37:09.629Z,0.00
2022-10-10T18:42:41.413Z,1.00
2022-10-10T18:48:12.869Z,0.00
2022-10-10T18:53:44.620Z,0.00
2022-10-10T18:59:16.683Z,1.00
2022-10-10T19:04:48.210Z,1.00
2022-10-10T19:10:19.617Z,1.00
2022-10-10T19:15:51.658Z,0.00
2022-10-10T19:21:23.393Z,1.00
2022-10-10T19:26:55.305Z,1.00
2022-10-10T19:32:26.838Z,1.00
2022-10-10T19:37:58.659Z,1.00
2022-10-10T19:43:30.312Z,2.00
2022-10-10T19:49:01.784Z,2.00
2022-10-10T19:54:34.207Z,1.00
2022-10-10T20:00:05.967Z,1.00
2022-10-10T20:05:37.817Z,1.00
2022-10-10T20:11:09.828Z,1.00
2022-10-10T20:16:41.395Z,1.00
2022-10-10T20:22:14.365Z,1.00
2022-10-10T20:33:15.651Z,1.00
2022-10-10T20:38:47.405Z,1.00
2022-10-10T20:44:19.313Z,1.00
2022-10-10T20:49:50.750Z,2.00
2022-10-10T20:55:22.586Z,1.00
2022-10-10T21:06:24.174Z,2.00
2022-10-10T21:11:56.012Z,1.00
2022-10-10T21:17:27.699Z,1.00
2022-10-10T21:22:59.690Z,1.00
2022-10-10T21:28:31.425Z,1.00
2022-10-10T21:34:03.256Z,2.00
2022-10-10T21:39:35.008Z,1.00
2022-10-10T21:45:06.714Z,0.00
2022-10-10T21:50:38.548Z,1.00
2022-10-10T21:56:10.553Z,1.00
2022-10-10T22:01:42.149Z,0.00
2022-10-10T22:03:53.910Z,0.00
2022-10-10T22:09:25.377Z,0.00
2022-10-10T22:20:26.209Z,0.00
2022-10-10T22:25:58.133Z,0.00
2022-10-10T22:31:29.834Z,0.00
2022-10-10T22:42:33.317Z,0.00
2022-10-10T22:48:04.945Z,0.00
2022-10-10T22:53:36.483Z,0.00
2022-10-10T22:59:08.757Z,0.00
2022-10-10T23:04:40.677Z,1.00
2022-10-10T23:10:12.465Z,0.00
2022-10-10T23:15:44.117Z,0.00
2022-10-10T23:26:47.607Z,0.00
2022-10-10T23:32:18.934Z,0.00
2022-10-10T23:37:50.334Z,0.00
2022-10-10T23:48:54.045Z,0.00
2022-10-10T23:54:25.952Z,0.00
2022-10-10T23:59:57.734Z,0.00
